ARCT2: Red River, ARthur City

Data processed at Sat Mar 10 2018 23:29


All information presented herein is the property of the government of the United States of America and may be revised or deleted at any time without prior notice.
Dissemination of this information without the expressed written consent of the Public Affairs Office, Tulsa District U.S. Army Corps of Engineers is strictly prohibited.
These data are gathered electronically and, as presented, have not undergone any form of quality control. These data are not guaranteed to be valid or correct.
Go to home page.
Go to station list.

Upstream stations:

Downstream station:
Previous Day
Next Day
Current Day
    
SHEF ID:       ARCT2     Red River at Arthur City, TX
STATION TYPE:  

               PRECIP     STAGE  STAGE(2)  RIV-FLOW  BAT-LOAD
                   in        ft        ft       cfs      volt
              Ccp-Rev   Ccp-Rev   Ccp-Rev   Ccp-Rev   Ccp-Rev
(US/Central)
03/08 00:00      0.01     10.53     10.58     11422     12.57
03/08 01:00      0.00     10.50     10.56     11350     12.57
03/08 02:00      0.00     10.46     10.51     11254     12.57
03/08 03:00      0.00     10.43     10.50     11182     12.57
03/08 04:00      0.00     10.42     10.47     11158     12.49
03/08 05:00      0.00     10.39     10.44     11087     12.41
03/08 06:00      0.00     10.36     10.43     11015     12.41
03/08 07:00      0.00     10.36     10.41     11015     12.41
03/08 08:00      0.01     10.32     10.37     10921     12.65
03/08 09:00      0.00     10.30     10.35     10874     13.84
03/08 10:00      0.00     10.29     10.33     10850     14.00
03/08 11:00      0.00     10.26     10.31     10780     14.16
03/08 12:00      0.01     10.27     10.30     10803     14.08
03/08 13:00      0.00     10.25     10.28     10756     14.00
03/08 14:00      0.00     10.22     10.27     10686     13.92
03/08 15:00      0.00     10.23     10.25     10709     13.92
03/08 16:00      0.01     10.22     10.26     10686     13.84
03/08 17:00      0.00     10.25     10.27     10756     13.37
03/08 18:00      0.00     10.25     10.29     10756     13.37
03/08 19:00      0.00     10.27     10.29     10803     13.05
03/08 20:00      0.01     10.32     10.35     10921     12.65
03/08 21:00      0.00     10.36     10.40     11015     12.65
03/08 22:00      0.00     10.44     10.49     11206     12.65
03/08 23:00      0.00     10.53     10.58     11422     12.57